createdAt,value
2022-11-24T00:00:01.916Z,42.5
2022-11-24T00:15:02.191Z,42
2022-11-24T00:30:05.350Z,42
2022-11-24T00:45:06.075Z,42.5
2022-11-24T01:00:05.142Z,42
2022-11-24T01:30:02.229Z,42
2022-11-24T01:45:04.849Z,42
2022-11-24T02:00:02.184Z,42
2022-11-24T02:15:05.859Z,42
2022-11-24T02:30:03.085Z,42
2022-11-24T02:45:06.026Z,42
2022-11-24T03:00:04.162Z,42
2022-11-24T03:15:06.072Z,42
2022-11-24T03:30:05.229Z,42
2022-11-24T03:45:02.967Z,42
2022-11-24T04:00:02.019Z,42
2022-11-24T04:15:02.224Z,42
2022-11-24T04:30:03.862Z,42
2022-11-24T04:45:06.382Z,42
2022-11-24T05:00:04.988Z,42
2022-11-24T05:15:05.328Z,42.5
2022-11-24T05:30:04.070Z,44
2022-11-24T05:45:05.879Z,44
2022-11-24T06:00:03.091Z,43.5
2022-11-24T06:15:02.129Z,43.5
2022-11-24T06:30:05.347Z,43.5
2022-11-24T06:45:03.090Z,43
2022-11-24T07:00:05.186Z,43
2022-11-24T07:15:04.944Z,42
2022-11-24T07:30:04.298Z,42.5
2022-11-24T07:45:04.244Z,42
2022-11-24T08:15:03.245Z,42
2022-11-24T08:30:04.439Z,41.5
2022-11-24T08:45:06.195Z,41.5
2022-11-24T09:00:02.517Z,41.5
2022-11-24T09:30:03.253Z,41
2022-11-24T09:45:04.367Z,41.5
2022-11-24T10:00:03.260Z,42
2022-11-24T10:15:05.271Z,41.5
2022-11-24T10:30:05.006Z,41.5
2022-11-24T10:45:05.173Z,41
2022-11-24T11:00:04.945Z,41
2022-11-24T11:15:06.271Z,41.5
2022-11-24T11:30:03.849Z,41
2022-11-24T11:45:03.327Z,41
2022-11-24T12:00:01.828Z,41
2022-11-24T12:15:02.196Z,41.5
2022-11-24T12:30:03.436Z,42
2022-11-24T12:45:04.970Z,42
2022-11-24T13:00:06.321Z,44.5
2022-11-24T13:15:04.444Z,45.5
2022-11-24T13:30:02.395Z,46.5
2022-11-24T13:45:05.539Z,48
2022-11-24T14:00:02.297Z,46
2022-11-24T14:15:02.036Z,44.5
2022-11-24T14:30:05.277Z,44.5
2022-11-24T14:45:03.605Z,43.5
2022-11-24T15:00:03.071Z,43.5
2022-11-24T15:15:02.094Z,43
2022-11-24T15:30:05.305Z,42.5
2022-11-24T15:45:05.932Z,42.5
2022-11-24T16:00:03.197Z,42
2022-11-24T16:15:04.346Z,42
2022-11-24T16:30:04.209Z,42
2022-11-24T16:45:05.225Z,42
2022-11-24T17:15:03.993Z,42
2022-11-24T17:30:06.337Z,42.5
2022-11-24T17:45:04.981Z,42.5
2022-11-24T18:00:04.220Z,43
2022-11-24T18:15:04.245Z,43.5
2022-11-24T18:30:03.100Z,44
2022-11-24T18:45:06.265Z,43
2022-11-24T19:00:03.254Z,42
2022-11-24T19:15:04.399Z,42
2022-11-24T19:30:04.278Z,42.5
2022-11-24T19:45:04.269Z,42.5
2022-11-24T20:00:04.166Z,42.5
2022-11-24T20:15:02.979Z,42.5
2022-11-24T20:30:03.903Z,42.5
2022-11-24T20:45:02.915Z,43
2022-11-24T21:00:05.864Z,42.5
2022-11-24T21:15:03.113Z,43
2022-11-24T21:30:03.183Z,43
2022-11-24T21:45:06.176Z,44
2022-11-24T22:00:02.334Z,44.5
2022-11-24T22:15:03.066Z,44
2022-11-24T22:30:06.094Z,44
2022-11-24T22:45:03.189Z,44
2022-11-24T23:00:05.298Z,44
2022-11-24T23:15:05.962Z,44
2022-11-24T23:30:05.047Z,44
2022-11-24T23:45:02.365Z,44
